createdAt,value
2023-05-24T00:00:54.974Z,510.0000
2023-05-24T00:02:03.010Z,485.0000
2023-05-24T00:03:11.168Z,502.0000
2023-05-24T00:04:19.342Z,485.0000
2023-05-24T00:05:27.329Z,517.0000
2023-05-24T00:06:35.236Z,490.0000
2023-05-24T00:07:43.328Z,500.0000
2023-05-24T00:08:51.443Z,508.0000
2023-05-24T00:09:59.425Z,506.0000
2023-05-24T00:11:07.554Z,505.0000
2023-05-24T00:12:15.581Z,508.0000
2023-05-24T00:13:23.838Z,483.0000
2023-05-24T00:14:31.740Z,501.0000
2023-05-24T00:15:39.742Z,510.0000
2023-05-24T00:16:47.858Z,494.0000
2023-05-24T00:17:56.042Z,515.0000
2023-05-24T00:19:03.983Z,508.0000
2023-05-24T00:20:12.287Z,512.0000
2023-05-24T00:21:20.070Z,519.0000
2023-05-24T00:22:28.118Z,518.0000
2023-05-24T00:23:36.222Z,527.0000
2023-05-24T00:24:44.227Z,533.0000
2023-05-24T00:25:52.124Z,498.0000
2023-05-24T00:27:00.337Z,526.0000
2023-05-24T00:28:08.422Z,530.0000
2023-05-24T00:29:16.532Z,513.0000
2023-05-24T00:30:24.519Z,530.0000
2023-05-24T00:31:32.511Z,522.0000
2023-05-24T00:32:40.752Z,503.0000
2023-05-24T00:33:48.755Z,491.0000
2023-05-24T00:34:56.782Z,504.0000
2023-05-24T00:36:04.851Z,500.0000
2023-05-24T00:37:12.946Z,468.0000
2023-05-24T00:38:20.916Z,486.0000
2023-05-24T00:39:29.095Z,488.0000
2023-05-24T00:40:37.346Z,500.0000
2023-05-24T00:41:45.119Z,516.0000
2023-05-24T00:42:53.225Z,523.0000
2023-05-24T00:44:01.233Z,493.0000
2023-05-24T00:45:09.348Z,517.0000
2023-05-24T00:46:17.460Z,487.0000
2023-05-24T00:47:25.481Z,506.0000
2023-05-24T00:48:33.632Z,506.0000
2023-05-24T00:49:41.698Z,513.0000
2023-05-24T00:50:49.574Z,497.0000
2023-05-24T00:51:57.664Z,527.0000
2023-05-24T00:53:05.699Z,513.0000
2023-05-24T00:54:13.864Z,517.0000
2023-05-24T00:55:21.851Z,499.0000
2023-05-24T00:56:29.885Z,537.0000
2023-05-24T00:57:37.806Z,517.0000
2023-05-24T00:58:45.973Z,500.0000
2023-05-24T00:59:54.021Z,501.0000
2023-05-24T01:01:02.017Z,529.0000
2023-05-24T01:02:10.238Z,531.0000
2023-05-24T01:03:18.108Z,537.0000
2023-05-24T01:04:26.395Z,538.0000
2023-05-24T01:05:34.343Z,527.0000
2023-05-24T01:06:42.424Z,537.0000
2023-05-24T01:07:50.489Z,521.0000
2023-05-24T01:08:58.354Z,523.0000
2023-05-24T01:10:06.618Z,525.0000
2023-05-24T01:11:14.610Z,525.0000
2023-05-24T01:12:22.691Z,531.0000
2023-05-24T01:13:30.776Z,507.0000
2023-05-24T01:14:38.683Z,518.0000
2023-05-24T01:15:46.904Z,517.0000
2023-05-24T01:16:54.941Z,529.0000
2023-05-24T01:18:03.032Z,513.0000
2023-05-24T01:19:11.072Z,515.0000
2023-05-24T01:20:18.984Z,529.0000
2023-05-24T01:21:27.147Z,523.0000
2023-05-24T01:22:35.206Z,502.0000
2023-05-24T01:23:43.387Z,494.0000
2023-05-24T01:24:51.433Z,513.0000
2023-05-24T01:25:59.492Z,522.0000
2023-05-24T01:27:07.534Z,514.0000
2023-05-24T01:28:15.565Z,516.0000
2023-05-24T01:29:23.629Z,500.0000
2023-05-24T01:30:31.779Z,489.0000
2023-05-24T01:31:39.760Z,484.0000
2023-05-24T01:32:47.843Z,512.0000
2023-05-24T01:33:55.910Z,499.0000
2023-05-24T01:35:03.960Z,500.0000
2023-05-24T01:36:12.291Z,521.0000
2023-05-24T01:37:20.101Z,509.0000
2023-05-24T01:38:27.977Z,505.0000
2023-05-24T01:39:36.143Z,503.0000
2023-05-24T01:40:44.490Z,503.0000
2023-05-24T01:41:52.263Z,517.0000
2023-05-24T01:43:00.340Z,502.0000
2023-05-24T01:44:08.400Z,516.0000
2023-05-24T01:45:16.502Z,524.0000
2023-05-24T01:46:24.411Z,502.0000
2023-05-24T01:47:32.637Z,498.0000
2023-05-24T01:48:40.656Z,515.0000
2023-05-24T01:49:48.561Z,509.0000
2023-05-24T01:50:56.876Z,515.0000
2023-05-24T01:52:04.913Z,513.0000
2023-05-24T01:53:12.954Z,518.0000
2023-05-24T01:54:20.928Z,534.0000
2023-05-24T01:55:29.403Z,516.0000
2023-05-24T01:56:37.047Z,520.0000
2023-05-24T01:57:45.191Z,514.0000
2023-05-24T01:58:53.189Z,511.0000
2023-05-24T02:00:01.353Z,520.0000
2023-05-24T02:01:09.414Z,515.0000
2023-05-24T02:02:17.389Z,501.0000
2023-05-24T02:03:25.315Z,496.0000
2023-05-24T02:04:33.673Z,518.0000
2023-05-24T02:05:41.685Z,515.0000
2023-05-24T02:06:49.659Z,524.0000
2023-05-24T02:07:57.645Z,527.0000
2023-05-24T02:09:05.707Z,490.0000
2023-05-24T02:10:13.820Z,528.0000
2023-05-24T02:11:21.868Z,537.0000
2023-05-24T02:12:30.013Z,525.0000
2023-05-24T02:13:37.998Z,496.0000
2023-05-24T02:14:45.994Z,507.0000
2023-05-24T02:15:54.113Z,514.0000
2023-05-24T02:17:02.203Z,496.0000
2023-05-24T02:18:10.204Z,514.0000
2023-05-24T02:19:18.233Z,518.0000
2023-05-24T02:20:26.421Z,530.0000
2023-05-24T02:21:34.404Z,523.0000
2023-05-24T02:22:42.507Z,528.0000
2023-05-24T02:23:50.485Z,538.0000
2023-05-24T02:24:58.566Z,531.0000
2023-05-24T02:26:06.632Z,515.0000
2023-05-24T02:27:14.499Z,526.0000
2023-05-24T02:28:22.719Z,527.0000
2023-05-24T02:29:30.768Z,502.0000
2023-05-24T02:30:38.930Z,519.0000
2023-05-24T02:31:47.013Z,523.0000
2023-05-24T02:32:55.114Z,530.0000
2023-05-24T02:34:03.034Z,536.0000
2023-05-24T02:35:10.933Z,516.0000
2023-05-24T02:36:19.156Z,528.0000
2023-05-24T02:37:27.429Z,519.0000
2023-05-24T02:38:35.276Z,532.0000
2023-05-24T02:39:43.332Z,510.0000
2023-05-24T02:40:51.230Z,511.0000
2023-05-24T02:41:59.471Z,532.0000
2023-05-24T02:43:07.639Z,525.0000
2023-05-24T02:44:15.519Z,531.0000
2023-05-24T02:45:23.613Z,535.0000
2023-05-24T02:46:31.589Z,521.0000
2023-05-24T02:47:39.761Z,518.0000
2023-05-24T02:48:47.758Z,543.0000
2023-05-24T02:49:55.869Z,526.0000
2023-05-24T02:51:03.902Z,527.0000
2023-05-24T02:52:12.200Z,517.0000
2023-05-24T02:53:19.888Z,527.0000
2023-05-24T02:54:28.052Z,517.0000
2023-05-24T02:55:36.093Z,518.0000
2023-05-24T02:56:44.219Z,530.0000
2023-05-24T02:57:52.280Z,520.0000
2023-05-24T02:59:00.289Z,533.0000
2023-05-24T03:00:08.395Z,528.0000
2023-05-24T03:01:16.401Z,521.0000
2023-05-24T03:02:24.570Z,540.0000
2023-05-24T03:03:32.679Z,523.0000
2023-05-24T03:04:40.547Z,547.0000
2023-05-24T03:05:48.629Z,529.0000
2023-05-24T03:06:56.547Z,534.0000
2023-05-24T03:08:04.716Z,527.0000
2023-05-24T03:09:13.003Z,523.0000
2023-05-24T03:10:20.893Z,535.0000
2023-05-24T03:11:29.023Z,535.0000
2023-05-24T03:12:36.965Z,527.0000
2023-05-24T03:13:45.060Z,537.0000
2023-05-24T03:14:53.100Z,541.0000
2023-05-24T03:16:01.240Z,529.0000
2023-05-24T03:17:09.159Z,543.0000
2023-05-24T03:18:17.233Z,534.0000
2023-05-24T03:19:25.338Z,514.0000
2023-05-24T03:20:33.408Z,523.0000
2023-05-24T03:21:41.474Z,521.0000
2023-05-24T03:22:49.474Z,527.0000
2023-05-24T03:23:57.428Z,526.0000
2023-05-24T03:25:05.562Z,539.0000
2023-05-24T03:26:13.606Z,519.0000
2023-05-24T03:27:21.657Z,537.0000
2023-05-24T03:28:29.862Z,528.0000
2023-05-24T03:29:37.828Z,542.0000
2023-05-24T03:30:45.840Z,529.0000
2023-05-24T03:31:53.894Z,528.0000
2023-05-24T03:33:02.044Z,524.0000
2023-05-24T03:34:10.032Z,528.0000
2023-05-24T03:35:18.091Z,527.0000
2023-05-24T03:36:25.984Z,535.0000
2023-05-24T03:37:34.184Z,529.0000
2023-05-24T03:38:42.100Z,538.0000
2023-05-24T03:39:50.329Z,530.0000
2023-05-24T03:40:58.357Z,549.0000
2023-05-24T03:42:06.434Z,530.0000
2023-05-24T03:43:14.429Z,525.0000
2023-05-24T03:44:22.385Z,533.0000
2023-05-24T03:45:39.235Z,522.0000
2023-05-24T03:46:43.538Z,540.0000
2023-05-24T03:47:51.560Z,525.0000
2023-05-24T03:48:59.601Z,529.0000
2023-05-24T03:50:07.501Z,521.0000
2023-05-24T03:51:15.725Z,538.0000
2023-05-24T03:52:23.819Z,510.0000
2023-05-24T03:53:31.811Z,510.0000
2023-05-24T03:54:39.883Z,522.0000
2023-05-24T03:55:47.923Z,522.0000
2023-05-24T03:56:56.072Z,537.0000
2023-05-24T03:58:04.253Z,527.0000
2023-05-24T03:59:12.123Z,540.0000
2023-05-24T04:00:20.206Z,562.0000
2023-05-24T04:01:34.136Z,556.0000
2023-05-24T04:02:41.183Z,541.0000
2023-05-24T04:03:49.300Z,542.0000
2023-05-24T04:04:57.258Z,552.0000
2023-05-24T04:06:05.343Z,560.0000
2023-05-24T04:07:13.384Z,561.0000
2023-05-24T04:08:21.626Z,561.0000
2023-05-24T04:09:29.547Z,571.0000
2023-05-24T04:10:37.434Z,562.0000
2023-05-24T04:11:45.718Z,567.0000
2023-05-24T04:12:53.642Z,599.0000
2023-05-24T04:14:01.752Z,588.0000
2023-05-24T04:15:09.843Z,556.0000
2023-05-24T04:16:17.903Z,545.0000
2023-05-24T04:17:26.289Z,542.0000
2023-05-24T04:18:34.042Z,541.0000
2023-05-24T04:19:42.004Z,532.0000
2023-05-24T04:20:50.126Z,535.0000
2023-05-24T04:21:58.225Z,537.0000
2023-05-24T04:23:06.219Z,523.0000
2023-05-24T04:24:14.246Z,536.0000
2023-05-24T04:25:22.359Z,528.0000
2023-05-24T04:26:30.363Z,573.0000
2023-05-24T04:27:38.546Z,600.0000
2023-05-24T04:28:46.512Z,531.0000
2023-05-24T04:29:54.554Z,636.0000
2023-05-24T04:31:02.534Z,589.0000
2023-05-24T04:32:10.701Z,597.0000
2023-05-24T04:33:18.731Z,576.0000
2023-05-24T04:34:26.661Z,603.0000
2023-05-24T04:35:34.849Z,608.0000
2023-05-24T04:36:42.757Z,603.0000
2023-05-24T04:37:50.968Z,568.0000
2023-05-24T04:38:59.129Z,571.0000
2023-05-24T04:40:06.965Z,539.0000
2023-05-24T04:41:15.102Z,523.0000
2023-05-24T04:42:23.148Z,512.0000
2023-05-24T04:43:31.237Z,535.0000
2023-05-24T04:44:39.276Z,550.0000
2023-05-24T04:45:47.395Z,557.0000
2023-05-24T04:46:55.469Z,524.0000
2023-05-24T04:48:03.601Z,519.0000
2023-05-24T04:49:11.648Z,522.0000
2023-05-24T04:50:19.661Z,532.0000
2023-05-24T04:51:27.653Z,563.0000
2023-05-24T04:52:35.672Z,539.0000
2023-05-24T04:53:43.730Z,556.0000
2023-05-24T04:54:51.673Z,520.0000
2023-05-24T04:55:59.921Z,503.0000
2023-05-24T04:57:07.932Z,534.0000
2023-05-24T04:58:16.131Z,552.0000
2023-05-24T04:59:24.025Z,528.0000
2023-05-24T05:00:31.941Z,534.0000
2023-05-24T05:01:40.248Z,528.0000
2023-05-24T05:02:48.261Z,545.0000
2023-05-24T05:03:56.538Z,543.0000
2023-05-24T05:05:04.379Z,543.0000
2023-05-24T05:06:12.378Z,536.0000
2023-05-24T05:07:20.603Z,548.0000
2023-05-24T05:08:28.358Z,538.0000
2023-05-24T05:09:36.542Z,533.0000
2023-05-24T05:10:44.640Z,516.0000
2023-05-24T05:11:52.702Z,531.0000
2023-05-24T05:13:00.759Z,535.0000
2023-05-24T05:14:08.649Z,534.0000
2023-05-24T05:15:16.875Z,539.0000
2023-05-24T05:16:24.872Z,534.0000
2023-05-24T05:17:33.118Z,532.0000
2023-05-24T05:18:41.058Z,536.0000
2023-05-24T05:19:48.908Z,533.0000
2023-05-24T05:20:56.988Z,529.0000
2023-05-24T05:22:05.227Z,538.0000
2023-05-24T05:23:13.208Z,526.0000
2023-05-24T05:24:21.281Z,527.0000
2023-05-24T05:25:29.326Z,517.0000
2023-05-24T05:26:37.429Z,523.0000
2023-05-24T05:27:45.628Z,519.0000
2023-05-24T05:28:53.378Z,525.0000
2023-05-24T05:30:01.592Z,537.0000
2023-05-24T05:31:09.626Z,553.0000
2023-05-24T05:32:17.861Z,542.0000
2023-05-24T05:33:25.854Z,527.0000
2023-05-24T05:34:34.128Z,533.0000
2023-05-24T05:35:42.162Z,529.0000
2023-05-24T05:36:50.110Z,528.0000
2023-05-24T05:37:57.893Z,537.0000
2023-05-24T05:39:06.105Z,519.0000
2023-05-24T05:40:14.083Z,532.0000
2023-05-24T05:41:22.244Z,539.0000
2023-05-24T05:42:30.255Z,537.0000
2023-05-24T05:43:38.326Z,535.0000
2023-05-24T05:44:46.433Z,541.0000
2023-05-24T05:45:54.428Z,533.0000
2023-05-24T05:47:02.729Z,522.0000
2023-05-24T05:48:10.583Z,528.0000
2023-05-24T05:49:18.647Z,533.0000
2023-05-24T05:50:26.645Z,538.0000
2023-05-24T05:51:34.957Z,543.0000
2023-05-24T05:52:42.793Z,554.0000
2023-05-24T05:53:50.939Z,541.0000
2023-05-24T05:54:58.942Z,543.0000
2023-05-24T05:56:07.029Z,533.0000
2023-05-24T05:57:15.011Z,529.0000
2023-05-24T05:58:23.117Z,524.0000
2023-05-24T05:59:31.135Z,536.0000
2023-05-24T06:00:39.005Z,527.0000
2023-05-24T06:01:47.225Z,538.0000
2023-05-24T06:02:55.406Z,526.0000
2023-05-24T06:04:03.285Z,539.0000
2023-05-24T06:05:12.224Z,525.0000
2023-05-24T06:06:19.278Z,527.0000
2023-05-24T06:07:27.436Z,528.0000
2023-05-24T06:08:35.504Z,532.0000
2023-05-24T06:09:43.655Z,526.0000
2023-05-24T06:10:53.039Z,520.0000
2023-05-24T06:11:59.514Z,536.0000
2023-05-24T06:13:07.750Z,528.0000
2023-05-24T06:14:16.021Z,535.0000
2023-05-24T06:15:23.776Z,529.0000
2023-05-24T06:16:31.924Z,535.0000
2023-05-24T06:17:39.866Z,535.0000
2023-05-24T06:19:01.332Z,566.0000
2023-05-24T06:20:00.972Z,528.0000
2023-05-24T06:21:08.952Z,534.0000
2023-05-24T06:22:16.955Z,531.0000
2023-05-24T06:23:25.073Z,497.0000
2023-05-24T06:24:33.129Z,536.0000
2023-05-24T06:25:41.255Z,527.0000
2023-05-24T06:26:49.212Z,545.0000
2023-05-24T06:27:57.381Z,556.0000
2023-05-24T06:29:05.332Z,539.0000
2023-05-24T06:30:13.558Z,517.0000
2023-05-24T06:31:21.549Z,560.0000
2023-05-24T06:32:29.377Z,530.0000
2023-05-24T06:33:38.327Z,501.0000
2023-05-24T06:34:45.606Z,488.0000
2023-05-24T06:35:53.694Z,530.0000
2023-05-24T06:37:01.730Z,511.0000
2023-05-24T06:38:09.777Z,517.0000
2023-05-24T06:39:17.827Z,527.0000
2023-05-24T06:40:25.962Z,537.0000
2023-05-24T06:41:33.981Z,533.0000
2023-05-24T06:42:41.976Z,523.0000
2023-05-24T06:43:50.028Z,519.0000
2023-05-24T06:44:58.165Z,525.0000
2023-05-24T06:46:06.277Z,520.0000
2023-05-24T06:47:14.291Z,523.0000
2023-05-24T06:48:22.358Z,529.0000
2023-05-24T06:49:30.319Z,520.0000
2023-05-24T06:50:40.260Z,534.0000
2023-05-24T06:51:51.172Z,540.0000
2023-05-24T06:52:59.226Z,541.0000
2023-05-24T06:54:07.432Z,526.0000
2023-05-24T06:55:15.679Z,522.0000
2023-05-24T06:56:23.494Z,530.0000
2023-05-24T06:57:31.602Z,532.0000
2023-05-24T06:58:39.512Z,533.0000
2023-05-24T06:59:47.806Z,531.0000
2023-05-24T07:00:55.871Z,525.0000
2023-05-24T07:02:04.331Z,517.0000
2023-05-24T07:03:12.084Z,522.0000
2023-05-24T07:04:19.944Z,512.0000
2023-05-24T07:05:28.015Z,538.0000
2023-05-24T07:06:36.026Z,515.0000
2023-05-24T07:07:44.095Z,511.0000
2023-05-24T07:08:52.124Z,505.0000
2023-05-24T07:10:00.225Z,542.0000
2023-05-24T07:11:08.233Z,476.0000
2023-05-24T07:12:16.356Z,511.0000
2023-05-24T07:13:24.222Z,517.0000
2023-05-24T07:14:32.406Z,509.0000
2023-05-24T07:15:40.485Z,516.0000
2023-05-24T07:16:48.415Z,510.0000
2023-05-24T07:17:56.618Z,501.0000
2023-05-24T07:19:05.149Z,522.0000
2023-05-24T07:20:12.676Z,519.0000
2023-05-24T07:21:20.810Z,519.0000
2023-05-24T07:22:28.828Z,521.0000
2023-05-24T07:23:36.837Z,535.0000
2023-05-24T07:24:44.902Z,509.0000
2023-05-24T07:25:53.087Z,518.0000
2023-05-24T07:27:01.249Z,520.0000
2023-05-24T07:28:09.088Z,507.0000
2023-05-24T07:29:17.213Z,509.0000
2023-05-24T07:31:38.150Z,513.0000
2023-05-24T07:32:46.212Z,525.0000
2023-05-24T07:33:54.202Z,539.0000
2023-05-24T07:35:02.380Z,509.0000
2023-05-24T07:36:10.316Z,506.0000
2023-05-24T07:37:18.397Z,512.0000
2023-05-24T07:38:26.533Z,523.0000
2023-05-24T07:39:34.508Z,524.0000
2023-05-24T07:40:43.059Z,507.0000
2023-05-24T07:41:50.650Z,516.0000
2023-05-24T07:42:58.686Z,522.0000
2023-05-24T07:44:07.076Z,517.0000
2023-05-24T07:45:14.757Z,522.0000
2023-05-24T07:46:22.861Z,527.0000
2023-05-24T07:47:31.112Z,523.0000
2023-05-24T07:48:39.198Z,529.0000
2023-05-24T07:49:47.002Z,533.0000
2023-05-24T07:50:54.965Z,513.0000
2023-05-24T07:52:03.120Z,529.0000
2023-05-24T07:53:11.087Z,522.0000
2023-05-24T07:54:19.269Z,520.0000
2023-05-24T07:55:27.260Z,510.0000
2023-05-24T07:56:35.215Z,517.0000
2023-05-24T07:57:43.454Z,508.0000
2023-05-24T07:58:51.456Z,527.0000
2023-05-24T07:59:59.513Z,528.0000
2023-05-24T08:01:07.577Z,524.0000
2023-05-24T08:02:15.669Z,502.0000
2023-05-24T08:03:23.941Z,493.0000
2023-05-24T08:04:31.810Z,531.0000
2023-05-24T08:05:39.795Z,508.0000
2023-05-24T08:06:47.879Z,503.0000
2023-05-24T08:07:55.982Z,514.0000
2023-05-24T08:09:03.841Z,504.0000
2023-05-24T08:10:12.007Z,508.0000
2023-05-24T08:11:20.057Z,531.0000
2023-05-24T08:12:28.098Z,518.0000
2023-05-24T08:13:36.132Z,507.0000
2023-05-24T08:14:44.259Z,521.0000
2023-05-24T08:15:52.359Z,485.0000
2023-05-24T08:17:00.228Z,515.0000
2023-05-24T08:18:08.455Z,511.0000
2023-05-24T08:19:16.462Z,532.0000
2023-05-24T08:20:24.537Z,540.0000
2023-05-24T08:21:32.524Z,527.0000
2023-05-24T08:22:40.666Z,498.0000
2023-05-24T08:23:48.672Z,498.0000
2023-05-24T08:24:56.754Z,510.0000
2023-05-24T08:26:04.758Z,514.0000
2023-05-24T08:27:12.803Z,518.0000
2023-05-24T08:28:20.906Z,504.0000
2023-05-24T08:29:28.970Z,499.0000
2023-05-24T08:30:36.977Z,490.0000
2023-05-24T08:31:45.191Z,503.0000
2023-05-24T08:32:53.133Z,492.0000
2023-05-24T08:34:01.173Z,503.0000
2023-05-24T08:35:20.256Z,501.0000
2023-05-24T08:36:22.136Z,517.0000
2023-05-24T08:37:30.051Z,488.0000
2023-05-24T08:38:38.229Z,496.0000
2023-05-24T08:39:46.559Z,478.0000
2023-05-24T08:40:54.367Z,522.0000
2023-05-24T08:43:15.191Z,500.0000
2023-05-24T08:44:23.496Z,485.0000
2023-05-24T08:45:31.496Z,507.0000
2023-05-24T08:46:39.574Z,523.0000
2023-05-24T08:47:47.663Z,491.0000
2023-05-24T08:48:55.579Z,513.0000
2023-05-24T08:50:03.641Z,510.0000
2023-05-24T08:51:11.758Z,501.0000
2023-05-24T08:52:19.862Z,508.0000
2023-05-24T08:53:27.806Z,500.0000
2023-05-24T08:54:35.756Z,488.0000
2023-05-24T08:55:44.223Z,489.0000
2023-05-24T08:56:51.966Z,495.0000
2023-05-24T08:58:00.067Z,520.0000
2023-05-24T08:59:08.171Z,497.0000
2023-05-24T09:00:16.149Z,531.0000
2023-05-24T09:01:24.057Z,504.0000
2023-05-24T09:02:32.348Z,505.0000
2023-05-24T09:03:40.348Z,491.0000
2023-05-24T09:04:48.450Z,511.0000
2023-05-24T09:05:56.422Z,497.0000
2023-05-24T09:07:04.456Z,509.0000
2023-05-24T09:08:12.567Z,511.0000
2023-05-24T09:09:20.497Z,499.0000
2023-05-24T09:10:35.384Z,504.0000
2023-05-24T09:11:41.681Z,501.0000
2023-05-24T09:12:49.808Z,501.0000
2023-05-24T09:13:57.668Z,500.0000
2023-05-24T09:15:05.767Z,496.0000
2023-05-24T09:16:13.898Z,497.0000
2023-05-24T09:17:21.796Z,505.0000
2023-05-24T09:18:29.777Z,497.0000
2023-05-24T09:19:38.046Z,516.0000
2023-05-24T09:20:46.453Z,507.0000
2023-05-24T09:21:53.923Z,498.0000
2023-05-24T09:23:02.146Z,511.0000
2023-05-24T09:24:10.192Z,487.0000
2023-05-24T09:25:18.218Z,496.0000
2023-05-24T09:26:26.312Z,490.0000
2023-05-24T09:27:34.310Z,495.0000
2023-05-24T09:28:42.432Z,494.0000
2023-05-24T09:29:50.408Z,488.0000
2023-05-24T09:30:58.644Z,497.0000
2023-05-24T09:32:06.637Z,498.0000
2023-05-24T09:33:14.680Z,501.0000
2023-05-24T09:34:22.695Z,499.0000
2023-05-24T09:35:30.970Z,481.0000
2023-05-24T09:36:38.743Z,515.0000
2023-05-24T09:37:46.812Z,496.0000
2023-05-24T09:38:54.937Z,509.0000
2023-05-24T09:40:03.146Z,497.0000
2023-05-24T09:41:11.341Z,522.0000
2023-05-24T09:42:19.120Z,507.0000
2023-05-24T09:43:27.313Z,491.0000
2023-05-24T09:44:35.342Z,515.0000
2023-05-24T09:45:43.350Z,497.0000
2023-05-24T09:46:51.490Z,503.0000
2023-05-24T09:47:59.452Z,503.0000
2023-05-24T09:49:07.430Z,494.0000
2023-05-24T09:50:15.749Z,498.0000
2023-05-24T09:51:23.604Z,503.0000
2023-05-24T09:52:33.169Z,501.0000
2023-05-24T09:53:39.693Z,503.0000
2023-05-24T09:54:47.813Z,507.0000
2023-05-24T09:55:55.667Z,503.0000
2023-05-24T09:57:04.925Z,490.0000
2023-05-24T09:58:11.909Z,506.0000
2023-05-24T09:59:19.837Z,503.0000
2023-05-24T10:00:28.091Z,506.0000
2023-05-24T10:01:36.048Z,491.0000
2023-05-24T10:02:52.937Z,477.0000
2023-05-24T10:03:57.114Z,489.0000
2023-05-24T10:05:05.264Z,481.0000
2023-05-24T10:06:13.230Z,495.0000
2023-05-24T10:07:21.093Z,498.0000
2023-05-24T10:08:29.155Z,496.0000
2023-05-24T10:09:37.352Z,494.0000
2023-05-24T10:10:45.504Z,502.0000
2023-05-24T10:11:53.492Z,493.0000
2023-05-24T10:13:01.489Z,507.0000
2023-05-24T10:14:09.453Z,479.0000
2023-05-24T10:15:17.647Z,468.0000
2023-05-24T10:16:25.888Z,496.0000
2023-05-24T10:17:33.769Z,490.0000
2023-05-24T10:18:41.807Z,500.0000
2023-05-24T10:19:49.870Z,480.0000
2023-05-24T10:20:58.207Z,552.0000
2023-05-24T10:22:05.826Z,504.0000
2023-05-24T10:23:13.996Z,528.0000
2023-05-24T10:24:22.060Z,516.0000
2023-05-24T10:25:30.125Z,488.0000
2023-05-24T10:26:38.164Z,523.0000
2023-05-24T10:27:46.186Z,506.0000
2023-05-24T10:28:54.263Z,503.0000
2023-05-24T10:30:02.256Z,508.0000
2023-05-24T10:31:10.419Z,497.0000
2023-05-24T10:32:18.477Z,489.0000
2023-05-24T10:33:26.515Z,495.0000
2023-05-24T10:34:34.531Z,481.0000
2023-05-24T10:35:42.818Z,509.0000
2023-05-24T10:36:50.612Z,500.0000
2023-05-24T10:37:58.726Z,491.0000
2023-05-24T10:39:06.774Z,493.0000
2023-05-24T10:40:14.750Z,507.0000
2023-05-24T10:41:22.848Z,509.0000
2023-05-24T10:42:30.972Z,491.0000
2023-05-24T10:43:39.114Z,484.0000
2023-05-24T10:44:47.005Z,480.0000
2023-05-24T10:45:55.128Z,499.0000
2023-05-24T10:47:03.095Z,487.0000
2023-05-24T10:48:11.370Z,500.0000
2023-05-24T10:49:19.294Z,494.0000
2023-05-24T10:50:27.286Z,482.0000
2023-05-24T10:51:35.216Z,487.0000
2023-05-24T10:52:43.346Z,478.0000
2023-05-24T10:53:51.333Z,487.0000
2023-05-24T10:55:04.044Z,490.0000
2023-05-24T10:56:12.561Z,483.0000
2023-05-24T10:57:20.468Z,492.0000
2023-05-24T10:58:28.588Z,485.0000
2023-05-24T10:59:36.602Z,486.0000
2023-05-24T11:00:44.675Z,480.0000
2023-05-24T11:01:52.725Z,483.0000
2023-05-24T11:03:00.913Z,476.0000
2023-05-24T11:04:08.882Z,480.0000
2023-05-24T11:05:16.870Z,503.0000
2023-05-24T11:06:24.916Z,492.0000
2023-05-24T11:07:32.957Z,486.0000
2023-05-24T11:08:40.952Z,480.0000
2023-05-24T11:09:49.079Z,476.0000
2023-05-24T11:10:57.154Z,491.0000
2023-05-24T11:12:05.353Z,490.0000
2023-05-24T11:13:13.253Z,493.0000
2023-05-24T11:14:21.426Z,484.0000
2023-05-24T11:15:29.391Z,500.0000
2023-05-24T11:16:38.546Z,484.0000
2023-05-24T11:17:45.416Z,498.0000
2023-05-24T11:18:53.589Z,492.0000
2023-05-24T11:20:01.507Z,487.0000
2023-05-24T11:21:09.797Z,486.0000
2023-05-24T11:22:17.721Z,471.0000
2023-05-24T11:23:25.979Z,497.0000
2023-05-24T11:24:33.874Z,501.0000
2023-05-24T11:25:41.904Z,483.0000
2023-05-24T11:26:49.984Z,499.0000
2023-05-24T11:27:58.006Z,498.0000
2023-05-24T11:29:06.012Z,504.0000
2023-05-24T11:30:14.252Z,491.0000
2023-05-24T11:31:22.059Z,487.0000
2023-05-24T11:32:30.208Z,484.0000
2023-05-24T11:33:38.180Z,513.0000
2023-05-24T11:34:46.425Z,507.0000
2023-05-24T11:35:54.370Z,483.0000
2023-05-24T11:37:02.472Z,495.0000
2023-05-24T11:38:10.512Z,498.0000
2023-05-24T11:39:18.732Z,493.0000
2023-05-24T11:40:26.673Z,491.0000
2023-05-24T11:41:34.672Z,490.0000
2023-05-24T11:42:42.706Z,493.0000
2023-05-24T11:43:50.679Z,482.0000
2023-05-24T11:44:58.820Z,477.0000
2023-05-24T11:46:06.781Z,493.0000
2023-05-24T11:47:14.957Z,489.0000
2023-05-24T11:48:23.108Z,489.0000
2023-05-24T11:49:31.082Z,482.0000
2023-05-24T11:50:48.837Z,493.0000
2023-05-24T11:51:51.890Z,491.0000
2023-05-24T11:53:00.132Z,482.0000
2023-05-24T11:54:08.185Z,496.0000
2023-05-24T11:55:16.834Z,498.0000
2023-05-24T11:56:24.166Z,463.0000
2023-05-24T11:57:32.265Z,488.0000
2023-05-24T11:58:40.253Z,494.0000
2023-05-24T11:59:48.413Z,491.0000
2023-05-24T12:00:56.458Z,488.0000
2023-05-24T12:02:04.732Z,485.0000
2023-05-24T12:03:12.572Z,481.0000
2023-05-24T12:04:20.721Z,475.0000
2023-05-24T12:05:28.682Z,481.0000
2023-05-24T12:06:36.748Z,478.0000
2023-05-24T12:07:44.800Z,488.0000
2023-05-24T12:08:52.820Z,533.0000
2023-05-24T12:10:00.842Z,481.0000
2023-05-24T12:11:08.938Z,521.0000
2023-05-24T12:12:16.882Z,486.0000
2023-05-24T12:13:25.410Z,477.0000
2023-05-24T12:14:33.495Z,497.0000
2023-05-24T12:15:41.355Z,462.0000
2023-05-24T12:16:49.416Z,501.0000
2023-05-24T12:17:57.165Z,493.0000
2023-05-24T12:19:11.632Z,491.0000
2023-05-24T12:20:18.348Z,495.0000
2023-05-24T12:21:26.280Z,475.0000
2023-05-24T12:22:34.372Z,481.0000
2023-05-24T12:23:42.302Z,479.0000
2023-05-24T12:24:50.357Z,463.0000
2023-05-24T12:25:58.563Z,464.0000
2023-05-24T12:27:06.806Z,474.0000
2023-05-24T12:28:14.610Z,482.0000
2023-05-24T12:29:22.554Z,473.0000
2023-05-24T12:30:30.795Z,466.0000
2023-05-24T12:31:38.796Z,473.0000
2023-05-24T12:32:46.857Z,470.0000
2023-05-24T12:33:54.878Z,511.0000
2023-05-24T12:35:03.001Z,479.0000
2023-05-24T12:36:10.892Z,484.0000
2023-05-24T12:37:19.141Z,471.0000
2023-05-24T12:38:26.984Z,504.0000
2023-05-24T12:39:35.469Z,475.0000
2023-05-24T12:40:43.371Z,465.0000
2023-05-24T12:41:51.263Z,477.0000
2023-05-24T12:42:59.331Z,502.0000
2023-05-24T12:44:07.310Z,488.0000
2023-05-24T12:45:15.415Z,486.0000
2023-05-24T12:46:23.534Z,489.0000
2023-05-24T12:47:31.571Z,505.0000
2023-05-24T12:48:39.637Z,478.0000
2023-05-24T12:49:47.563Z,477.0000
2023-05-24T12:50:55.809Z,493.0000
2023-05-24T12:52:03.819Z,488.0000
2023-05-24T12:53:11.845Z,485.0000
2023-05-24T12:54:19.904Z,471.0000
2023-05-24T12:55:28.033Z,509.0000
2023-05-24T12:56:36.007Z,457.0000
2023-05-24T12:57:44.075Z,488.0000
2023-05-24T12:58:51.996Z,477.0000
2023-05-24T13:00:00.289Z,471.0000
2023-05-24T13:01:08.341Z,496.0000
2023-05-24T13:02:16.268Z,463.0000
2023-05-24T13:03:24.340Z,481.0000
2023-05-24T13:04:32.268Z,468.0000
2023-05-24T13:05:40.504Z,469.0000
2023-05-24T13:06:48.583Z,475.0000
2023-05-24T13:07:56.564Z,473.0000
2023-05-24T13:09:04.801Z,482.0000
2023-05-24T13:10:12.537Z,477.0000
2023-05-24T13:11:20.854Z,464.0000
2023-05-24T13:12:28.792Z,474.0000
2023-05-24T13:13:36.819Z,481.0000
2023-05-24T13:14:44.886Z,479.0000
2023-05-24T13:15:52.874Z,496.0000
2023-05-24T13:17:01.004Z,466.0000
2023-05-24T13:18:09.226Z,485.0000
2023-05-24T13:19:17.066Z,489.0000
2023-05-24T13:20:25.369Z,482.0000
2023-05-24T13:21:33.222Z,474.0000
2023-05-24T13:22:41.297Z,498.0000